sensor_id;sensor_type;location;lat;lon;timestamp;pressure;altitude;pressure_sealevel;temperature;humidity
34177;BME280;20450;49.074;9.158;2022-09-06T00:00:55;99579.84;;;20.23;78.92
34177;BME280;20450;49.074;9.158;2022-09-06T00:03:23;99573.78;;;20.14;80.90
34177;BME280;20450;49.074;9.158;2022-09-06T00:05:50;99584.06;;;20.09;81.39
34177;BME280;20450;49.074;9.158;2022-09-06T00:08:17;99577.47;;;19.97;81.87
34177;BME280;20450;49.074;9.158;2022-09-06T00:10:44;99571.91;;;19.84;82.99
34177;BME280;20450;49.074;9.158;2022-09-06T00:13:11;99566.81;;;19.75;83.72
34177;BME280;20450;49.074;9.158;2022-09-06T00:15:39;99563.38;;;19.66;84.91
34177;BME280;20450;49.074;9.158;2022-09-06T00:18:06;99551.53;;;19.62;84.70
34177;BME280;20450;49.074;9.158;2022-09-06T00:20:36;99546.72;;;19.66;85.38
34177;BME280;20450;49.074;9.158;2022-09-06T00:23:05;99549.78;;;19.77;84.31
34177;BME280;20450;49.074;9.158;2022-09-06T00:25:33;99550.94;;;19.83;84.15
34177;BME280;20450;49.074;9.158;2022-09-06T00:28:03;99556.53;;;19.88;81.55
34177;BME280;20450;49.074;9.158;2022-09-06T00:30:31;99552.53;;;19.92;81.74
34177;BME280;20450;49.074;9.158;2022-09-06T00:33:00;99557.00;;;19.91;81.89
34177;BME280;20450;49.074;9.158;2022-09-06T00:35:28;99559.66;;;19.91;80.38
34177;BME280;20450;49.074;9.158;2022-09-06T00:37:56;99563.09;;;19.92;79.95
34177;BME280;20450;49.074;9.158;2022-09-06T00:40:25;99564.75;;;19.93;80.52
34177;BME280;20450;49.074;9.158;2022-09-06T00:42:53;99547.41;;;19.90;79.98
34177;BME280;20450;49.074;9.158;2022-09-06T00:45:20;99555.84;;;19.94;81.63
34177;BME280;20450;49.074;9.158;2022-09-06T00:47:48;99553.00;;;19.95;82.09
34177;BME280;20450;49.074;9.158;2022-09-06T00:50:18;99550.88;;;19.91;82.09
34177;BME280;20450;49.074;9.158;2022-09-06T00:52:47;99544.97;;;19.81;80.98
34177;BME280;20450;49.074;9.158;2022-09-06T00:55:18;99556.72;;;19.78;80.04
34177;BME280;20450;49.074;9.158;2022-09-06T00:57:47;99571.78;;;19.78;79.85
34177;BME280;20450;49.074;9.158;2022-09-06T01:00:16;99551.47;;;19.70;79.89
34177;BME280;20450;49.074;9.158;2022-09-06T01:02:44;99560.53;;;19.76;80.05
34177;BME280;20450;49.074;9.158;2022-09-06T01:05:13;99558.41;;;19.79;79.99
34177;BME280;20450;49.074;9.158;2022-09-06T01:07:50;99560.03;;;19.80;80.82
34177;BME280;20450;49.074;9.158;2022-09-06T01:10:49;99560.25;;;19.71;80.99
34177;BME280;20450;49.074;9.158;2022-09-06T01:13:33;99565.53;;;19.71;80.66
34177;BME280;20450;49.074;9.158;2022-09-06T01:16:11;99556.28;;;19.67;80.47
34177;BME280;20450;49.074;9.158;2022-09-06T01:19:07;99557.94;;;19.68;82.26
34177;BME280;20450;49.074;9.158;2022-09-06T01:21:57;99565.25;;;19.58;80.17
34177;BME280;20450;49.074;9.158;2022-09-06T01:24:59;99574.91;;;19.35;78.46
34177;BME280;20450;49.074;9.158;2022-09-06T01:28:12;99574.56;;;19.38;79.30
34177;BME280;20450;49.074;9.158;2022-09-06T01:30:59;99579.53;;;19.33;78.21
34177;BME280;20450;49.074;9.158;2022-09-06T01:33:37;99572.13;;;19.28;78.94
34177;BME280;20450;49.074;9.158;2022-09-06T01:36:15;99583.97;;;19.32;79.05
34177;BME280;20450;49.074;9.158;2022-09-06T01:38:46;99587.47;;;19.33;79.21
34177;BME280;20450;49.074;9.158;2022-09-06T01:41:13;99588.28;;;19.33;79.64
34177;BME280;20450;49.074;9.158;2022-09-06T01:43:44;99583.66;;;19.35;80.57
34177;BME280;20450;49.074;9.158;2022-09-06T01:46:22;99581.50;;;19.39;82.59
34177;BME280;20450;49.074;9.158;2022-09-06T01:49:11;99582.34;;;19.39;82.14
34177;BME280;20450;49.074;9.158;2022-09-06T01:52:00;99594.88;;;19.37;84.37
34177;BME280;20450;49.074;9.158;2022-09-06T01:54:49;99597.69;;;19.36;83.72
34177;BME280;20450;49.074;9.158;2022-09-06T01:57:42;99588.28;;;19.33;82.36
34177;BME280;20450;49.074;9.158;2022-09-06T02:00:22;99601.66;;;19.32;82.60
34177;BME280;20450;49.074;9.158;2022-09-06T02:02:57;99600.66;;;19.33;83.19
34177;BME280;20450;49.074;9.158;2022-09-06T02:05:35;99613.22;;;19.39;82.11
34177;BME280;20450;49.074;9.158;2022-09-06T02:08:11;99645.41;;;19.42;83.07
34177;BME280;20450;49.074;9.158;2022-09-06T02:10:46;99689.50;;;19.42;81.11
34177;BME280;20450;49.074;9.158;2022-09-06T02:13:22;99666.56;;;19.42;80.67
34177;BME280;20450;49.074;9.158;2022-09-06T02:15:55;99677.63;;;19.46;80.37
34177;BME280;20450;49.074;9.158;2022-09-06T02:18:30;99683.19;;;19.59;78.92
34177;BME280;20450;49.074;9.158;2022-09-06T02:21:05;99682.53;;;19.73;79.48
34177;BME280;20450;49.074;9.158;2022-09-06T02:23:38;99684.13;;;19.82;79.22
34177;BME280;20450;49.074;9.158;2022-09-06T02:26:12;99698.09;;;19.60;78.96
34177;BME280;20450;49.074;9.158;2022-09-06T02:28:43;99705.22;;;19.51;80.10
34177;BME280;20450;49.074;9.158;2022-09-06T02:31:16;99701.41;;;19.54;80.74
34177;BME280;20450;49.074;9.158;2022-09-06T02:33:49;99707.81;;;19.67;81.51
34177;BME280;20450;49.074;9.158;2022-09-06T02:36:18;99701.84;;;19.73;84.35
34177;BME280;20450;49.074;9.158;2022-09-06T02:38:45;99699.41;;;19.72;83.63
34177;BME280;20450;49.074;9.158;2022-09-06T02:41:14;99714.22;;;19.81;82.44
34177;BME280;20450;49.074;9.158;2022-09-06T02:43:44;99714.91;;;19.83;84.03
34177;BME280;20450;49.074;9.158;2022-09-06T02:46:13;99724.78;;;19.97;82.68
34177;BME280;20450;49.074;9.158;2022-09-06T02:48:40;99721.81;;;20.08;84.01
34177;BME280;20450;49.074;9.158;2022-09-06T02:51:08;99706.09;;;20.06;85.60
34177;BME280;20450;49.074;9.158;2022-09-06T02:53:35;99688.03;;;20.10;85.66
34177;BME280;20450;49.074;9.158;2022-09-06T02:56:03;99675.50;;;20.12;87.09
34177;BME280;20450;49.074;9.158;2022-09-06T02:58:30;99643.81;;;19.80;87.78
34177;BME280;20450;49.074;9.158;2022-09-06T03:00:57;99576.50;;;19.60;91.81
34177;BME280;20450;49.074;9.158;2022-09-06T03:03:26;99521.72;;;19.30;95.74
34177;BME280;20450;49.074;9.158;2022-09-06T03:05:53;99527.34;;;19.19;97.32
34177;BME280;20450;49.074;9.158;2022-09-06T03:08:22;99548.97;;;19.30;96.80
34177;BME280;20450;49.074;9.158;2022-09-06T03:10:50;99579.19;;;19.44;98.11
34177;BME280;20450;49.074;9.158;2022-09-06T03:13:19;99578.00;;;19.46;99.77
34177;BME280;20450;49.074;9.158;2022-09-06T03:15:49;99583.09;;;19.56;100.00
34177;BME280;20450;49.074;9.158;2022-09-06T03:18:16;99581.94;;;19.58;95.43
34177;BME280;20450;49.074;9.158;2022-09-06T03:20:47;99600.41;;;19.66;96.96
34177;BME280;20450;49.074;9.158;2022-09-06T03:23:14;99612.28;;;19.70;97.56
34177;BME280;20450;49.074;9.158;2022-09-06T03:25:42;99600.56;;;19.73;95.87
34177;BME280;20450;49.074;9.158;2022-09-06T03:28:10;99603.38;;;19.71;95.23
34177;BME280;20450;49.074;9.158;2022-09-06T03:30:37;99636.41;;;19.75;97.55
34177;BME280;20450;49.074;9.158;2022-09-06T03:33:05;99665.34;;;19.77;97.13
34177;BME280;20450;49.074;9.158;2022-09-06T03:35:32;99689.78;;;19.79;97.54
34177;BME280;20450;49.074;9.158;2022-09-06T03:38:01;99683.16;;;19.75;97.42
34177;BME280;20450;49.074;9.158;2022-09-06T03:40:28;99644.91;;;19.47;98.72
34177;BME280;20450;49.074;9.158;2022-09-06T03:42:55;99618.00;;;19.03;99.15
34177;BME280;20450;49.074;9.158;2022-09-06T03:45:22;99619.16;;;18.85;100.00
34177;BME280;20450;49.074;9.158;2022-09-06T03:47:49;99598.06;;;18.69;100.00
34177;BME280;20450;49.074;9.158;2022-09-06T03:50:16;99593.09;;;18.66;100.00
34177;BME280;20450;49.074;9.158;2022-09-06T03:52:43;99593.59;;;18.69;100.00
34177;BME280;20450;49.074;9.158;2022-09-06T03:55:11;99592.75;;;18.61;100.00
34177;BME280;20450;49.074;9.158;2022-09-06T03:57:38;99581.38;;;18.68;100.00
34177;BME280;20450;49.074;9.158;2022-09-06T04:00:06;99578.56;;;18.78;100.00
34177;BME280;20450;49.074;9.158;2022-09-06T04:02:39;99580.72;;;18.82;100.00
34177;BME280;20450;49.074;9.158;2022-09-06T04:05:06;99587.34;;;18.94;100.00
34177;BME280;20450;49.074;9.158;2022-09-06T04:07:34;99596.88;;;19.03;100.00
34177;BME280;20450;49.074;9.158;2022-09-06T04:10:00;99606.47;;;19.12;100.00
34177;BME280;20450;49.074;9.158;2022-09-06T04:12:29;99619.50;;;18.82;100.00
34177;BME280;20450;49.074;9.158;2022-09-06T04:14:56;99627.09;;;18.93;100.00
34177;BME280;20450;49.074;9.158;2022-09-06T04:17:23;99616.44;;;18.29;100.00
34177;BME280;20450;49.074;9.158;2022-09-06T04:19:49;99612.47;;;18.25;100.00
34177;BME280;20450;49.074;9.158;2022-09-06T04:22:16;99621.09;;;18.43;100.00
34177;BME280;20450;49.074;9.158;2022-09-06T04:24:43;99625.09;;;18.55;100.00
34177;BME280;20450;49.074;9.158;2022-09-06T04:27:10;99628.59;;;18.71;100.00
34177;BME280;20450;49.074;9.158;2022-09-06T04:29:39;99635.34;;;18.82;100.00
34177;BME280;20450;49.074;9.158;2022-09-06T04:32:06;99626.63;;;18.89;100.00
34177;BME280;20450;49.074;9.158;2022-09-06T04:34:46;99623.16;;;18.97;100.00
34177;BME280;20450;49.074;9.158;2022-09-06T04:37:16;99615.88;;;18.99;100.00
34177;BME280;20450;49.074;9.158;2022-09-06T04:39:43;99616.84;;;19.06;100.00
34177;BME280;20450;49.074;9.158;2022-09-06T04:42:11;99606.94;;;19.08;100.00
34177;BME280;20450;49.074;9.158;2022-09-06T04:44:39;99620.31;;;19.14;100.00
34177;BME280;20450;49.074;9.158;2022-09-06T04:47:10;99621.81;;;19.17;100.00
34177;BME280;20450;49.074;9.158;2022-09-06T04:49:39;99620.00;;;19.17;100.00
34177;BME280;20450;49.074;9.158;2022-09-06T04:52:06;99626.91;;;19.18;100.00
34177;BME280;20450;49.074;9.158;2022-09-06T04:54:33;99631.38;;;19.18;100.00
34177;BME280;20450;49.074;9.158;2022-09-06T04:57:01;99640.31;;;18.69;100.00
34177;BME280;20450;49.074;9.158;2022-09-06T04:59:38;99639.28;;;18.46;100.00
34177;BME280;20450;49.074;9.158;2022-09-06T05:02:26;99640.09;;;18.05;100.00
34177;BME280;20450;49.074;9.158;2022-09-06T05:04:53;99626.53;;;17.92;100.00
34177;BME280;20450;49.074;9.158;2022-09-06T05:07:20;99630.50;;;17.96;100.00
34177;BME280;20450;49.074;9.158;2022-09-06T05:09:47;99640.41;;;18.02;100.00
34177;BME280;20450;49.074;9.158;2022-09-06T05:12:15;99631.72;;;17.76;100.00
34177;BME280;20450;49.074;9.158;2022-09-06T05:14:42;99622.16;;;17.67;100.00
34177;BME280;20450;49.074;9.158;2022-09-06T05:17:09;99618.72;;;17.74;100.00
34177;BME280;20450;49.074;9.158;2022-09-06T05:19:37;99620.25;;;17.93;100.00
34177;BME280;20450;49.074;9.158;2022-09-06T05:22:05;99629.88;;;18.10;100.00
34177;BME280;20450;49.074;9.158;2022-09-06T05:24:32;99634.44;;;18.33;100.00
34177;BME280;20450;49.074;9.158;2022-09-06T05:26:59;99636.94;;;18.35;100.00
34177;BME280;20450;49.074;9.158;2022-09-06T05:29:26;99625.31;;;18.12;100.00
34177;BME280;20450;49.074;9.158;2022-09-06T05:31:56;99629.44;;;18.14;100.00
34177;BME280;20450;49.074;9.158;2022-09-06T05:34:26;99638.13;;;18.48;100.00
34177;BME280;20450;49.074;9.158;2022-09-06T05:36:55;99629.22;;;18.81;100.00
34177;BME280;20450;49.074;9.158;2022-09-06T05:39:22;99645.41;;;19.42;100.00
34177;BME280;20450;49.074;9.158;2022-09-06T05:41:49;99652.34;;;19.98;99.15
34177;BME280;20450;49.074;9.158;2022-09-06T05:44:17;99648.13;;;20.58;96.13
34177;BME280;20450;49.074;9.158;2022-09-06T05:46:47;99663.34;;;21.09;94.76
34177;BME280;20450;49.074;9.158;2022-09-06T05:49:14;99659.97;;;21.15;93.87
34177;BME280;20450;49.074;9.158;2022-09-06T05:51:41;99663.53;;;21.22;90.86
34177;BME280;20450;49.074;9.158;2022-09-06T05:54:10;99666.91;;;21.16;92.49
34177;BME280;20450;49.074;9.158;2022-09-06T05:56:37;99659.97;;;21.15;93.00
34177;BME280;20450;49.074;9.158;2022-09-06T05:59:05;99669.28;;;21.11;91.91
34177;BME280;20450;49.074;9.158;2022-09-06T06:01:32;99663.97;;;21.11;91.98
34177;BME280;20450;49.074;9.158;2022-09-06T06:04:00;99665.97;;;21.09;92.52
34177;BME280;20450;49.074;9.158;2022-09-06T06:06:31;99668.16;;;21.05;93.23
34177;BME280;20450;49.074;9.158;2022-09-06T06:08:59;99665.41;;;20.99;93.76
34177;BME280;20450;49.074;9.158;2022-09-06T06:11:29;99665.09;;;20.94;93.89
34177;BME280;20450;49.074;9.158;2022-09-06T06:14:03;99670.44;;;20.86;93.69
34177;BME280;20450;49.074;9.158;2022-09-06T06:20:41;99678.41;;;20.78;93.66
34177;BME280;20450;49.074;9.158;2022-09-06T06:23:08;99672.81;;;20.73;95.63
34177;BME280;20450;49.074;9.158;2022-09-06T06:25:35;99674.78;;;20.79;96.05
34177;BME280;20450;49.074;9.158;2022-09-06T06:28:03;99678.41;;;20.78;95.79
34177;BME280;20450;49.074;9.158;2022-09-06T06:30:30;99667.59;;;20.65;94.83
34177;BME280;20450;49.074;9.158;2022-09-06T06:33:00;99666.34;;;20.53;95.98
34177;BME280;20450;49.074;9.158;2022-09-06T06:35:29;99652.56;;;20.27;98.63
34177;BME280;20450;49.074;9.158;2022-09-06T06:37:56;99663.84;;;20.21;100.00
34177;BME280;20450;49.074;9.158;2022-09-06T06:40:23;99668.19;;;20.14;99.82
34177;BME280;20450;49.074;9.158;2022-09-06T06:42:50;99673.44;;;19.75;100.00
34177;BME280;20450;49.074;9.158;2022-09-06T06:45:18;99672.81;;;19.49;100.00
34177;BME280;20450;49.074;9.158;2022-09-06T06:47:48;99659.63;;;19.25;100.00
34177;BME280;20450;49.074;9.158;2022-09-06T06:50:15;99662.13;;;19.27;100.00
34177;BME280;20450;49.074;9.158;2022-09-06T06:52:43;99669.69;;;19.30;100.00
34177;BME280;20450;49.074;9.158;2022-09-06T06:55:13;99671.34;;;19.39;100.00
34177;BME280;20450;49.074;9.158;2022-09-06T06:57:40;99661.44;;;19.17;100.00
34177;BME280;20450;49.074;9.158;2022-09-06T07:00:09;99662.44;;;19.16;100.00
34177;BME280;20450;49.074;9.158;2022-09-06T07:02:38;99664.25;;;19.31;100.00
34177;BME280;20450;49.074;9.158;2022-09-06T07:05:06;99657.44;;;19.53;100.00
34177;BME280;20450;49.074;9.158;2022-09-06T07:07:59;99674.78;;;19.63;100.00
34177;BME280;20450;49.074;9.158;2022-09-06T07:10:26;99666.50;;;19.74;100.00
34177;BME280;20450;49.074;9.158;2022-09-06T07:13:01;99665.00;;;20.26;100.00
34177;BME280;20450;49.074;9.158;2022-09-06T07:15:28;99661.19;;;20.82;99.03
34177;BME280;20450;49.074;9.158;2022-09-06T07:17:57;99655.03;;;22.07;94.42
34177;BME280;20450;49.074;9.158;2022-09-06T07:20:23;99653.03;;;24.04;82.51
34177;BME280;20450;49.074;9.158;2022-09-06T07:22:58;99652.38;;;25.29;76.11
34177;BME280;20450;49.074;9.158;2022-09-06T07:25:45;99665.75;;;26.25;71.15
34177;BME280;20450;49.074;9.158;2022-09-06T07:28:12;99664.94;;;27.55;68.12
34177;BME280;20450;49.074;9.158;2022-09-06T07:30:40;99666.28;;;28.42;63.09
34177;BME280;20450;49.074;9.158;2022-09-06T07:33:09;99670.94;;;28.29;62.63
34177;BME280;20450;49.074;9.158;2022-09-06T07:35:37;99668.72;;;27.47;63.44
34177;BME280;20450;49.074;9.158;2022-09-06T07:38:04;99661.38;;;25.54;71.11
34177;BME280;20450;49.074;9.158;2022-09-06T07:40:31;99678.69;;;24.59;74.45
34177;BME280;20450;49.074;9.158;2022-09-06T07:42:58;99670.09;;;24.63;74.56
34177;BME280;20450;49.074;9.158;2022-09-06T07:45:25;99673.34;;;23.50;80.39
34177;BME280;20450;49.074;9.158;2022-09-06T07:47:53;99669.31;;;22.70;83.93
34177;BME280;20450;49.074;9.158;2022-09-06T07:50:23;99659.16;;;22.24;87.22
34177;BME280;20450;49.074;9.158;2022-09-06T07:53:10;99677.66;;;23.51;83.11
34177;BME280;20450;49.074;9.158;2022-09-06T07:55:43;99674.22;;;24.79;77.58
34177;BME280;20450;49.074;9.158;2022-09-06T07:58:10;99675.94;;;25.71;72.66
34177;BME280;20450;49.074;9.158;2022-09-06T08:00:37;99674.63;;;26.12;71.46
34177;BME280;20450;49.074;9.158;2022-09-06T08:03:04;99676.78;;;28.26;64.61
34177;BME280;20450;49.074;9.158;2022-09-06T08:05:33;99670.19;;;27.43;64.44
34177;BME280;20450;49.074;9.158;2022-09-06T08:08:21;99666.66;;;27.67;63.68
34177;BME280;20450;49.074;9.158;2022-09-06T08:11:22;99652.25;;;27.44;64.00
34177;BME280;20450;49.074;9.158;2022-09-06T08:14:04;99643.00;;;26.60;66.16
34177;BME280;20450;49.074;9.158;2022-09-06T08:16:33;99654.63;;;26.28;68.48
34177;BME280;20450;49.074;9.158;2022-09-06T08:19:03;99655.47;;;26.28;67.60
34177;BME280;20450;49.074;9.158;2022-09-06T08:21:35;99654.16;;;24.83;73.25
34177;BME280;20450;49.074;9.158;2022-09-06T08:24:05;99650.00;;;24.61;74.01
34177;BME280;20450;49.074;9.158;2022-09-06T08:26:35;99642.78;;;24.55;73.28
34177;BME280;20450;49.074;9.158;2022-09-06T08:29:07;99642.28;;;25.57;70.02
34177;BME280;20450;49.074;9.158;2022-09-06T08:31:40;99653.19;;;26.25;67.69
34177;BME280;20450;49.074;9.158;2022-09-06T08:34:14;99643.50;;;25.15;68.39
34177;BME280;20450;49.074;9.158;2022-09-06T08:40:48;99646.81;;;25.30;69.03
34177;BME280;20450;49.074;9.158;2022-09-06T08:45:23;99639.19;;;25.60;67.91
34177;BME280;20450;49.074;9.158;2022-09-06T08:48:33;99658.56;;;26.19;65.79
34177;BME280;20450;49.074;9.158;2022-09-06T08:51:33;99659.88;;;26.91;64.27
34177;BME280;20450;49.074;9.158;2022-09-06T08:54:20;99647.94;;;27.18;60.74
34177;BME280;20450;49.074;9.158;2022-09-06T08:57:07;99649.78;;;26.87;63.70
34177;BME280;20450;49.074;9.158;2022-09-06T08:59:42;99637.91;;;28.17;58.92
34177;BME280;20450;49.074;9.158;2022-09-06T09:02:19;99631.66;;;28.23;59.91
34177;BME280;20450;49.074;9.158;2022-09-06T09:04:54;99637.97;;;28.76;58.33
34177;BME280;20450;49.074;9.158;2022-09-06T09:07:58;99635.69;;;28.14;58.64
34177;BME280;20450;49.074;9.158;2022-09-06T09:10:39;99635.66;;;28.50;58.32
34177;BME280;20450;49.074;9.158;2022-09-06T09:13:20;99631.25;;;28.08;58.50
34177;BME280;20450;49.074;9.158;2022-09-06T09:15:53;99636.59;;;27.23;61.70
34177;BME280;20450;49.074;9.158;2022-09-06T09:18:26;99623.66;;;26.14;64.16
34177;BME280;20450;49.074;9.158;2022-09-06T09:20:59;99634.19;;;27.39;62.04
34177;BME280;20450;49.074;9.158;2022-09-06T09:23:31;99623.22;;;28.55;59.41
34177;BME280;20450;49.074;9.158;2022-09-06T09:26:12;99627.16;;;29.46;55.26
34177;BME280;20450;49.074;9.158;2022-09-06T09:29:05;99639.84;;;29.97;54.02
34177;BME280;20450;49.074;9.158;2022-09-06T09:31:38;99634.50;;;29.51;54.49
34177;BME280;20450;49.074;9.158;2022-09-06T09:34:14;99628.81;;;28.95;57.19
34177;BME280;20450;49.074;9.158;2022-09-06T09:37:10;99618.88;;;28.07;58.77
34177;BME280;20450;49.074;9.158;2022-09-06T09:40:13;99625.75;;;27.11;61.65
34177;BME280;20450;49.074;9.158;2022-09-06T09:53:22;99631.09;;;28.03;60.46
34177;BME280;20450;49.074;9.158;2022-09-06T09:55:55;99621.47;;;28.90;58.15
34177;BME280;20450;49.074;9.158;2022-09-06T09:58:30;99625.91;;;30.51;53.43
34177;BME280;20450;49.074;9.158;2022-09-06T10:04:31;99600.88;;;32.68;47.62
34177;BME280;20450;49.074;9.158;2022-09-06T10:07:12;99615.13;;;31.40;48.66
34177;BME280;20450;49.074;9.158;2022-09-06T10:09:57;99614.16;;;32.75;46.28
34177;BME280;20450;49.074;9.158;2022-09-06T10:12:30;99625.50;;;33.76;44.41
34177;BME280;20450;49.074;9.158;2022-09-06T10:15:00;99617.75;;;34.41;42.20
34177;BME280;20450;49.074;9.158;2022-09-06T10:17:35;99616.84;;;33.69;43.31
34177;BME280;20450;49.074;9.158;2022-09-06T10:20:07;99616.56;;;34.22;42.64
34177;BME280;20450;49.074;9.158;2022-09-06T10:22:45;99600.56;;;34.11;42.41
34177;BME280;20450;49.074;9.158;2022-09-06T10:25:44;99613.19;;;34.57;41.28
34177;BME280;20450;49.074;9.158;2022-09-06T10:28:29;99611.34;;;35.47;38.36
34177;BME280;20450;49.074;9.158;2022-09-06T10:31:24;99598.72;;;36.01;36.81
34177;BME280;20450;49.074;9.158;2022-09-06T10:34:09;99609.97;;;35.75;37.61
34177;BME280;20450;49.074;9.158;2022-09-06T10:37:06;99605.13;;;35.02;38.10
34177;BME280;20450;49.074;9.158;2022-09-06T10:39:47;99608.84;;;34.71;38.72
34177;BME280;20450;49.074;9.158;2022-09-06T10:42:42;99598.28;;;34.54;39.20
34177;BME280;20450;49.074;9.158;2022-09-06T10:45:37;99585.69;;;34.08;39.38
34177;BME280;20450;49.074;9.158;2022-09-06T10:49:12;99592.94;;;33.15;41.78
34177;BME280;20450;49.074;9.158;2022-09-06T10:51:46;99592.25;;;32.98;41.95
34177;BME280;20450;49.074;9.158;2022-09-06T10:54:20;99590.28;;;33.20;41.79
34177;BME280;20450;49.074;9.158;2022-09-06T10:57:22;99585.66;;;32.84;41.63
34177;BME280;20450;49.074;9.158;2022-09-06T11:00:15;99578.31;;;32.26;43.43
34177;BME280;20450;49.074;9.158;2022-09-06T11:02:50;99571.59;;;32.55;42.27
34177;BME280;20450;49.074;9.158;2022-09-06T11:06:30;99583.09;;;32.99;41.92
34177;BME280;20450;49.074;9.158;2022-09-06T11:10:43;99563.78;;;33.17;41.80
34177;BME280;20450;49.074;9.158;2022-09-06T11:17:44;99577.59;;;33.25;40.42
34177;BME280;20450;49.074;9.158;2022-09-06T11:21:33;99552.78;;;32.92;41.46
34177;BME280;20450;49.074;9.158;2022-09-06T11:26:06;99562.13;;;32.53;42.24
34177;BME280;20450;49.074;9.158;2022-09-06T11:28:55;99564.69;;;32.69;42.07
34177;BME280;20450;49.074;9.158;2022-09-06T11:31:32;99570.97;;;32.75;41.17
34177;BME280;20450;49.074;9.158;2022-09-06T11:34:35;99567.63;;;33.67;40.53
34177;BME280;20450;49.074;9.158;2022-09-06T11:37:06;99578.25;;;34.60;38.80
34177;BME280;20450;49.074;9.158;2022-09-06T11:40:03;99578.00;;;35.17;38.17
34177;BME280;20450;49.074;9.158;2022-09-06T11:46:56;99572.72;;;33.59;40.52
34177;BME280;20450;49.074;9.158;2022-09-06T11:49:30;99578.28;;;34.85;38.33
34177;BME280;20450;49.074;9.158;2022-09-06T11:55:44;99567.03;;;34.12;38.26
34177;BME280;20450;49.074;9.158;2022-09-06T11:58:28;99558.94;;;34.17;36.66
34177;BME280;20450;49.074;9.158;2022-09-06T12:42:22;99499.06;;;31.63;43.31
34177;BME280;20450;49.074;9.158;2022-09-06T12:45:15;99514.78;;;31.71;42.92
34177;BME280;20450;49.074;9.158;2022-09-06T12:48:26;99516.28;;;31.62;43.14
34177;BME280;20450;49.074;9.158;2022-09-06T12:56:08;99502.63;;;31.47;43.63
34177;BME280;20450;49.074;9.158;2022-09-06T12:59:31;99504.16;;;31.21;43.70
34177;BME280;20450;49.074;9.158;2022-09-06T13:10:50;99495.16;;;31.32;44.60
34177;BME280;20450;49.074;9.158;2022-09-06T13:13:22;99486.84;;;31.34;43.73
34177;BME280;20450;49.074;9.158;2022-09-06T13:15:52;99483.59;;;31.32;43.16
34177;BME280;20450;49.074;9.158;2022-09-06T13:18:31;99482.66;;;30.72;42.99
34177;BME280;20450;49.074;9.158;2022-09-06T13:21:24;99476.38;;;30.83;43.22
34177;BME280;20450;49.074;9.158;2022-09-06T13:24:26;99477.41;;;30.98;43.65
34177;BME280;20450;49.074;9.158;2022-09-06T13:27:25;99476.78;;;30.91;42.86
34177;BME280;20450;49.074;9.158;2022-09-06T14:16:38;99405.50;;;29.67;44.17
34177;BME280;20450;49.074;9.158;2022-09-06T14:19:13;99409.38;;;29.87;44.20
34177;BME280;20450;49.074;9.158;2022-09-06T14:21:54;99411.50;;;30.02;42.95
34177;BME280;20450;49.074;9.158;2022-09-06T14:24:21;99398.09;;;29.34;42.99
34177;BME280;20450;49.074;9.158;2022-09-06T14:46:43;99411.94;;;28.46;50.06
34177;BME280;20450;49.074;9.158;2022-09-06T14:49:35;99420.47;;;28.43;51.26
34177;BME280;20450;49.074;9.158;2022-09-06T14:52:03;99397.69;;;28.34;51.29
34177;BME280;20450;49.074;9.158;2022-09-06T14:54:32;99413.97;;;28.32;51.81
34177;BME280;20450;49.074;9.158;2022-09-06T14:57:04;99417.06;;;28.47;51.52
34177;BME280;20450;49.074;9.158;2022-09-06T14:59:33;99425.13;;;28.59;50.24
34177;BME280;20450;49.074;9.158;2022-09-06T15:02:02;99422.19;;;28.83;49.59
34177;BME280;20450;49.074;9.158;2022-09-06T15:04:34;99410.19;;;28.86;49.76
34177;BME280;20450;49.074;9.158;2022-09-06T15:07:02;99416.59;;;28.85;48.12
34177;BME280;20450;49.074;9.158;2022-09-06T15:09:53;99425.13;;;28.82;47.25
34177;BME280;20450;49.074;9.158;2022-09-06T15:12:26;99426.53;;;28.50;47.93
34177;BME280;20450;49.074;9.158;2022-09-06T15:15:31;99431.88;;;28.50;46.09
34177;BME280;20450;49.074;9.158;2022-09-06T15:18:02;99417.78;;;28.43;44.97
34177;BME280;20450;49.074;9.158;2022-09-06T15:20:46;99421.19;;;28.20;44.11
34177;BME280;20450;49.074;9.158;2022-09-06T15:23:16;99436.59;;;28.25;44.36
34177;BME280;20450;49.074;9.158;2022-09-06T15:26:03;99425.47;;;28.51;44.57
34177;BME280;20450;49.074;9.158;2022-09-06T15:28:35;99423.38;;;28.41;44.71
34177;BME280;20450;49.074;9.158;2022-09-06T15:31:04;99406.44;;;28.41;43.37
34177;BME280;20450;49.074;9.158;2022-09-06T15:34:48;99418.03;;;28.53;44.23
34177;BME280;20450;49.074;9.158;2022-09-06T15:38:02;99397.22;;;28.37;44.09
34177;BME280;20450;49.074;9.158;2022-09-06T15:40:30;99399.59;;;28.56;44.22
34177;BME280;20450;49.074;9.158;2022-09-06T15:42:57;99380.38;;;28.48;43.26
34177;BME280;20450;49.074;9.158;2022-09-06T15:45:24;99384.09;;;28.47;43.44
34177;BME280;20450;49.074;9.158;2022-09-06T15:47:53;99380.03;;;28.44;43.10
34177;BME280;20450;49.074;9.158;2022-09-06T16:09:28;99369.88;;;28.46;40.83
34177;BME280;20450;49.074;9.158;2022-09-06T16:11:59;99368.91;;;28.41;40.31
34177;BME280;20450;49.074;9.158;2022-09-06T16:15:02;99372.06;;;28.49;40.53
34177;BME280;20450;49.074;9.158;2022-09-06T16:17:40;99371.50;;;28.59;40.61
34177;BME280;20450;49.074;9.158;2022-09-06T16:20:19;99349.81;;;28.49;40.57
34177;BME280;20450;49.074;9.158;2022-09-06T16:22:48;99361.00;;;28.46;40.08
34177;BME280;20450;49.074;9.158;2022-09-06T16:25:16;99358.75;;;28.31;40.88
34177;BME280;20450;49.074;9.158;2022-09-06T16:27:47;99355.47;;;28.18;39.75
34177;BME280;20450;49.074;9.158;2022-09-06T16:30:14;99353.97;;;28.22;40.91
34177;BME280;20450;49.074;9.158;2022-09-06T16:32:42;99358.19;;;28.29;40.90
34177;BME280;20450;49.074;9.158;2022-09-06T16:35:09;99358.06;;;28.13;41.24
34177;BME280;20450;49.074;9.158;2022-09-06T16:37:45;99354.50;;;27.89;40.79
34177;BME280;20450;49.074;9.158;2022-09-06T16:40:14;99355.69;;;27.93;41.37